Time;durP1;ratioP1;P1;durP2;ratioP2;P2;SDS_P1;SDS_P2;PMS_P1;PMS_P2;Temp;Humidity;BMP_temperature;BMP_pressure;BME280_temperature;BME280_humidity;BME280_pressure;Samples;Min_cycle;Max_cycle;Signal;HPM_P1;HPM_P2
2022/06/27 00:00:28;;;;;;;12.70;6.93;;;;;;;18.36;77.63;101561.53;4992795;28;20042;-51
2022/06/27 00:02:53;;;;;;;12.50;6.88;;;;;;;18.39;78.76;101565.03;4991461;28;20393;-52
2022/06/27 00:05:19;;;;;;;12.38;7.22;;;;;;;18.42;77.80;101567.66;4995204;28;20125;-53
2022/06/27 00:07:44;;;;;;;12.18;7.00;;;;;;;18.44;79.20;101580.66;4993914;28;20042;-50
2022/06/27 00:10:10;;;;;;;9.85;7.28;;;;;;;18.46;78.08;101573.75;4995268;28;20034;-49
2022/06/27 00:12:37;;;;;;;10.25;7.13;;;;;;;18.48;78.33;101572.03;4994983;28;20062;-51
2022/06/27 00:15:03;;;;;;;11.20;7.82;;;;;;;18.44;78.18;101571.16;5001418;28;20041;-49
2022/06/27 00:17:29;;;;;;;11.60;7.57;;;;;;;18.46;78.30;101565.94;4999558;28;20530;-51
2022/06/27 00:19:54;;;;;;;8.25;7.13;;;;;;;18.44;77.78;101571.16;4980524;28;20103;-49
2022/06/27 00:22:20;;;;;;;10.90;7.32;;;;;;;18.45;78.67;101579.84;4993173;28;20042;-51
2022/06/27 00:24:45;;;;;;;10.63;7.90;;;;;;;18.45;78.52;101585.03;4993102;28;20064;-50
2022/06/27 00:27:11;;;;;;;9.48;7.55;;;;;;;18.47;78.35;101570.28;4993194;28;21935;-48
2022/06/27 00:29:36;;;;;;;10.10;8.30;;;;;;;18.42;79.02;101569.38;4996029;28;20169;-49
2022/06/27 00:32:02;;;;;;;11.88;7.80;;;;;;;18.40;77.87;101577.19;4994308;28;20113;-51
2022/06/27 00:34:27;;;;;;;9.48;7.88;;;;;;;18.43;78.13;101591.94;4990740;28;20030;-49
2022/06/27 00:36:53;;;;;;;11.73;8.32;;;;;;;18.35;78.20;101594.50;4991240;28;20380;-50
2022/06/27 00:39:18;;;;;;;12.25;8.20;;;;;;;18.35;78.24;101588.44;4988199;28;20034;-51
2022/06/27 00:41:44;;;;;;;10.52;7.88;;;;;;;18.35;78.49;101585.81;4993879;28;20041;-50
2022/06/27 00:44:09;;;;;;;11.75;8.15;;;;;;;18.38;78.94;101586.72;4996224;28;20390;-51
2022/06/27 00:46:35;;;;;;;11.15;7.63;;;;;;;18.34;78.43;101584.97;4993485;28;20030;-48
2022/06/27 00:49:00;;;;;;;13.60;7.85;;;;;;;18.39;77.90;101595.41;4990390;28;20030;-51
2022/06/27 00:51:26;;;;;;;11.75;7.95;;;;;;;18.32;78.19;101589.28;4991606;28;20499;-51
2022/06/27 00:53:52;;;;;;;10.70;8.00;;;;;;;18.36;78.38;101591.03;4991058;28;20105;-49
2022/06/27 00:56:18;;;;;;;11.63;7.85;;;;;;;18.28;79.55;101597.94;4991346;28;20026;-51
2022/06/27 00:58:43;;;;;;;11.15;7.72;;;;;;;18.33;79.18;101605.78;4989185;28;20057;-50
2022/06/27 01:01:09;;;;;;;14.27;8.20;;;;;;;18.33;78.77;101604.06;4993860;28;20065;-51
2022/06/27 01:03:34;;;;;;;12.57;8.25;;;;;;;18.34;79.21;101608.38;4993029;28;20398;-49
2022/06/27 01:06:00;;;;;;;11.85;8.65;;;;;;;18.33;79.24;101598.84;4991480;28;20045;-50
2022/06/27 01:08:25;;;;;;;14.13;8.30;;;;;;;18.33;78.93;101608.38;4991031;28;20029;-49
2022/06/27 01:10:52;;;;;;;12.35;8.38;;;;;;;18.33;79.11;101605.78;4991580;28;20065;-48
2022/06/27 01:13:18;;;;;;;12.32;8.90;;;;;;;18.28;79.54;101602.25;4992793;28;20053;-48
2022/06/27 01:15:47;;;;;;;12.38;8.25;;;;;;;18.31;79.62;101603.16;4988376;28;20053;-51
2022/06/27 01:18:12;;;;;;;;;;;;;;;18.46;77.77;101605.00;4998565;28;20053;-49
2022/06/27 01:20:42;;;;;;;16.80;8.60;;;;;;;18.30;78.73;101609.22;4990822;28;19917;-50
2022/06/27 01:23:07;;;;;;;13.05;8.75;;;;;;;18.34;78.76;101605.78;4991955;28;20071;-52
2022/06/27 01:25:35;;;;;;;13.07;8.35;;;;;;;18.29;79.16;101607.47;4990814;28;20056;-52
2022/06/27 01:28:02;;;;;;;11.53;9.30;;;;;;;18.31;79.22;101615.28;4985556;28;20038;-53
2022/06/27 01:30:27;;;;;;;11.43;8.70;;;;;;;18.26;79.04;101615.28;4986703;28;20605;-53
2022/06/27 01:32:52;;;;;;;12.98;9.05;;;;;;;18.29;79.08;101611.81;4990369;28;20952;-49
2022/06/27 01:35:18;;;;;;;14.15;9.57;;;;;;;18.27;79.36;101603.13;4982845;28;20038;-51
2022/06/27 01:37:44;;;;;;;11.88;9.38;;;;;;;18.28;79.37;101597.94;4995307;28;20120;-50
2022/06/27 01:40:09;;;;;;;12.10;9.32;;;;;;;18.28;80.17;101599.66;4993776;28;20114;-53
2022/06/27 01:42:35;;;;;;;10.98;9.13;;;;;;;18.28;80.44;101589.25;4973562;28;20073;-50
2022/06/27 01:45:01;;;;;;;12.10;8.95;;;;;;;18.28;80.51;101584.03;4994701;28;20034;-49
2022/06/27 01:47:29;;;;;;;12.43;9.15;;;;;;;18.26;79.80;101572.72;4998025;28;20486;-50
2022/06/27 01:49:54;;;;;;;10.80;8.43;;;;;;;18.23;80.31;101571.84;4991803;28;20056;-51
2022/06/27 01:52:20;;;;;;;11.05;8.70;;;;;;;18.24;79.58;101562.31;4990118;28;20486;-49
2022/06/27 01:54:45;;;;;;;12.40;9.38;;;;;;;18.27;79.33;101557.13;4994339;28;20080;-49
2022/06/27 01:57:11;;;;;;;14.25;8.73;;;;;;;18.27;80.24;101570.16;4992895;28;20041;-50
2022/06/27 01:59:37;;;;;;;12.70;8.65;;;;;;;18.21;79.57;101563.16;4996994;28;20034;-49
2022/06/27 02:02:04;;;;;;;10.73;8.63;;;;;;;18.22;79.49;101558.84;4993540;28;20438;-50
2022/06/27 02:04:31;;;;;;;12.13;8.73;;;;;;;18.20;80.40;101551.03;4995335;28;20022;-49
2022/06/27 02:06:58;;;;;;;11.20;8.75;;;;;;;18.20;80.95;101552.72;4991472;28;20030;-51
2022/06/27 02:09:24;;;;;;;14.10;8.55;;;;;;;18.19;80.50;101544.03;4997071;28;20479;-49
2022/06/27 02:11:51;;;;;;;12.15;8.90;;;;;;;18.20;80.31;101551.03;4992363;28;20064;-47
2022/06/27 02:14:17;;;;;;;12.85;8.23;;;;;;;18.21;80.30;101554.50;4988320;28;20511;-51
2022/06/27 02:16:43;;;;;;;12.98;8.57;;;;;;;18.25;79.17;101556.22;4995947;28;20033;-49
2022/06/27 02:19:12;;;;;;;11.15;8.75;;;;;;;18.17;79.74;101547.50;4991486;28;20030;-50
2022/06/27 02:21:39;;;;;;;15.82;8.77;;;;;;;18.18;79.92;101547.50;4989646;28;20394;-48
2022/06/27 02:24:04;;;;;;;16.73;9.48;;;;;;;18.12;80.52;101541.38;4991933;28;20541;-49
2022/06/27 02:26:30;;;;;;;11.38;8.80;;;;;;;18.15;80.31;101544.91;4991375;28;20026;-48
2022/06/27 02:28:58;;;;;;;11.88;9.25;;;;;;;18.14;80.95;101539.66;4992389;28;20045;-49
2022/06/27 02:31:24;;;;;;;13.02;9.20;;;;;;;18.10;81.21;101538.78;4988645;28;20446;-50
2022/06/27 02:33:51;;;;;;;12.20;9.18;;;;;;;18.16;82.18;101533.63;4988635;28;20034;-50
2022/06/27 02:36:20;;;;;;;11.52;8.82;;;;;;;18.15;81.91;101529.28;4992796;28;20048;-49
2022/06/27 02:38:50;;;;;;;13.17;8.90;;;;;;;18.15;81.85;101518.88;4992414;28;20470;-50
2022/06/27 02:41:18;;;;;;;13.88;8.93;;;;;;;18.13;82.10;101524.91;4986705;28;20053;-49
2022/06/27 02:43:49;;;;;;;12.95;9.02;;;;;;;18.14;82.58;101532.75;4990827;28;20025;-50
2022/06/27 02:46:15;;;;;;;13.30;8.50;;;;;;;18.11;82.12;101532.72;4991653;28;20025;-50
2022/06/27 02:48:41;;;;;;;10.25;8.80;;;;;;;18.10;81.69;101523.16;4989911;28;20076;-49
2022/06/27 02:51:15;;;;;;;14.00;9.35;;;;;;;18.11;82.12;101526.63;4973216;28;20026;-49
2022/06/27 02:53:57;;;;;;;11.70;9.10;;;;;;;18.12;82.34;101518.84;4987995;28;20117;-48
2022/06/27 02:56:26;;;;;;;11.23;8.90;;;;;;;18.08;82.42;101511.88;4991055;28;20085;-48
2022/06/27 02:59:01;;;;;;;13.43;9.23;;;;;;;18.09;82.25;101499.75;4986427;28;20468;-48
2022/06/27 03:01:28;;;;;;;12.88;8.95;;;;;;;18.05;81.94;101504.03;4993739;28;20030;-49
2022/06/27 03:03:55;;;;;;;10.80;9.18;;;;;;;18.04;81.40;101501.44;4989822;28;20073;-48
2022/06/27 03:06:20;;;;;;;11.55;9.10;;;;;;;18.01;81.00;101497.06;4996050;28;20042;-49
2022/06/27 03:08:47;;;;;;;11.88;8.85;;;;;;;18.02;80.97;101498.81;4991673;28;20034;-50
2022/06/27 03:11:18;;;;;;;12.75;9.57;;;;;;;17.95;81.66;101497.00;4981189;28;20049;-49
2022/06/27 03:13:46;;;;;;;13.90;9.27;;;;;;;17.93;81.44;101493.53;4992512;28;20045;-51
2022/06/27 03:16:13;;;;;;;12.23;9.75;;;;;;;17.89;81.64;101491.75;4993673;28;20094;-49
2022/06/27 03:18:38;;;;;;;12.48;9.43;;;;;;;17.88;81.53;101495.22;4986285;28;20318;-49
2022/06/27 03:21:04;;;;;;;10.63;9.32;;;;;;;17.85;81.28;101500.41;4987800;28;20037;-50
2022/06/27 03:23:29;;;;;;;14.48;9.57;;;;;;;17.81;81.55;101493.44;4995884;28;20033;-50
2022/06/27 03:25:55;;;;;;;11.73;8.88;;;;;;;17.83;81.59;101494.31;4990462;28;20034;-49
2022/06/27 03:28:21;;;;;;;12.02;9.38;;;;;;;17.79;81.57;101492.56;4996805;28;20030;-50
2022/06/27 03:30:46;;;;;;;11.95;9.15;;;;;;;17.76;81.89;101500.31;4988741;28;20113;-50
2022/06/27 03:33:12;;;;;;;17.73;9.75;;;;;;;17.72;82.04;101494.25;4993822;28;20036;-50
2022/06/27 03:35:38;;;;;;;12.90;10.07;;;;;;;17.70;82.59;101494.16;4986259;28;20096;-48
2022/06/27 03:38:03;;;;;;;13.48;10.15;;;;;;;17.69;82.38;101495.03;4994961;28;20026;-51
2022/06/27 03:40:28;;;;;;;13.00;9.52;;;;;;;17.66;82.74;101486.34;5004268;28;20038;-52
2022/06/27 03:42:54;;;;;;;13.02;9.73;;;;;;;17.63;82.52;101481.97;4987201;28;21168;-48
2022/06/27 03:45:19;;;;;;;12.70;9.50;;;;;;;17.61;82.71;101490.63;4989788;28;20125;-50
2022/06/27 03:47:50;;;;;;;12.07;9.43;;;;;;;17.61;82.78;101488.03;4991135;28;20030;-48
2022/06/27 03:50:21;;;;;;;12.18;9.68;;;;;;;17.57;83.11;101489.72;4991532;28;20502;-48
2022/06/27 03:52:46;;;;;;;14.00;9.50;;;;;;;17.54;82.94;101487.13;4995587;28;20027;-49
2022/06/27 03:55:13;;;;;;;13.38;10.13;;;;;;;17.53;83.19;101490.53;4993705;28;20048;-49
2022/06/27 03:57:45;;;;;;;13.00;9.82;;;;;;;17.49;83.46;101490.53;4991876;28;20544;-48
2022/06/27 04:00:11;;;;;;;13.40;10.20;;;;;;;17.48;83.54;101496.59;4985503;28;20487;-49
2022/06/27 04:02:37;;;;;;;12.43;9.68;;;;;;;17.47;83.35;101489.63;4988047;28;20041;-51
2022/06/27 04:05:03;;;;;;;14.23;9.43;;;;;;;17.45;83.65;101494.81;4993648;28;20019;-48
2022/06/27 04:07:29;;;;;;;14.43;9.77;;;;;;;17.41;83.84;101508.63;4992756;28;20037;-49
2022/06/27 04:09:55;;;;;;;11.45;9.35;;;;;;;17.42;83.82;101521.66;4990038;28;20030;-49
2022/06/27 04:12:20;;;;;;;13.32;9.80;;;;;;;17.42;84.07;101513.00;4993163;28;20055;-47
2022/06/27 04:14:46;;;;;;;13.18;10.35;;;;;;;17.41;84.78;101508.63;4989122;28;20077;-50
2022/06/27 04:17:11;;;;;;;13.95;10.10;;;;;;;17.41;85.28;101501.72;4990029;28;20031;-50
2022/06/27 04:19:37;;;;;;;13.18;9.85;;;;;;;17.45;85.75;101500.00;4992230;28;20057;-52
2022/06/27 04:22:03;;;;;;;12.70;9.70;;;;;;;17.47;85.27;101510.41;4991411;28;20498;-50
2022/06/27 04:24:29;;;;;;;11.82;9.38;;;;;;;17.46;84.83;101506.94;4985898;28;20105;-49
2022/06/27 04:26:54;;;;;;;11.85;10.00;;;;;;;17.50;85.30;101506.13;4991232;28;20052;-50
2022/06/27 04:29:19;;;;;;;13.05;10.05;;;;;;;17.51;85.28;101494.88;4993109;28;20041;-48
2022/06/27 04:31:45;;;;;;;13.82;10.02;;;;;;;17.57;85.95;101479.31;4988310;28;20390;-48
2022/06/27 04:34:12;;;;;;;12.90;9.82;;;;;;;17.60;86.01;101468.97;4992664;28;20030;-50
2022/06/27 04:36:38;;;;;;;12.98;10.93;;;;;;;17.64;85.82;101475.91;4990102;28;20027;-48
2022/06/27 04:39:04;;;;;;;12.68;10.98;;;;;;;17.61;85.64;101477.63;4989265;28;20037;-49
2022/06/27 04:41:29;;;;;;;12.88;10.80;;;;;;;17.65;85.47;101450.78;4998335;28;20036;-50
2022/06/27 04:43:55;;;;;;;13.80;11.30;;;;;;;17.69;85.23;101432.63;4987881;28;20036;-50
2022/06/27 04:46:21;;;;;;;14.88;11.15;;;;;;;17.70;84.85;101431.75;4990388;28;20041;-51
2022/06/27 04:48:48;;;;;;;14.32;11.50;;;;;;;17.72;84.82;101436.16;4985851;28;20030;-50
2022/06/27 04:51:14;;;;;;;16.67;11.57;;;;;;;17.77;84.78;101444.84;4988740;28;20061;-50
2022/06/27 04:53:41;;;;;;;18.75;12.07;;;;;;;17.72;83.76;101451.75;4988178;28;20475;-49
2022/06/27 04:56:08;;;;;;;14.77;11.50;;;;;;;17.75;83.37;101449.16;4997771;28;20026;-51
2022/06/27 04:58:34;;;;;;;14.35;12.23;;;;;;;17.75;83.43;101452.63;4990630;28;20384;-50
2022/06/27 05:01:00;;;;;;;13.68;11.85;;;;;;;17.74;83.22;101466.50;4988025;28;20030;-50
2022/06/27 05:03:25;;;;;;;13.45;11.75;;;;;;;17.78;83.19;101470.88;4991741;28;20034;-50
2022/06/27 05:05:51;;;;;;;17.92;12.48;;;;;;;17.80;83.26;101469.16;4988931;28;20038;-48
2022/06/27 05:08:17;;;;;;;18.70;13.23;;;;;;;17.79;83.21;101469.16;4992009;28;20598;-50
2022/06/27 05:10:43;;;;;;;15.13;12.20;;;;;;;17.72;83.41;101456.97;4991325;28;20088;-50
2022/06/27 05:13:09;;;;;;;16.13;12.48;;;;;;;17.74;83.46;101447.44;4994667;28;20550;-50
2022/06/27 05:15:37;;;;;;;17.55;12.68;;;;;;;17.76;83.42;101445.69;4991792;28;20073;-49
2022/06/27 05:18:02;;;;;;;15.90;12.68;;;;;;;17.76;83.57;101437.91;4994305;28;20085;-47
2022/06/27 05:20:30;;;;;;;18.70;12.50;;;;;;;17.73;82.98;101436.16;4974424;28;20061;-50
2022/06/27 05:22:55;;;;;;;16.58;11.77;;;;;;;17.78;83.81;101442.28;4988410;28;20037;-50
2022/06/27 05:25:21;;;;;;;15.32;13.45;;;;;;;17.77;83.31;101453.50;4995660;28;20038;-51
2022/06/27 05:27:46;;;;;;;15.60;11.38;;;;;;;17.81;83.38;101460.50;4993941;28;20030;-49
2022/06/27 05:30:13;;;;;;;14.57;11.70;;;;;;;17.81;83.80;101470.03;4995227;28;20391;-50
2022/06/27 05:32:39;;;;;;;16.45;12.82;;;;;;;17.79;84.04;101464.81;4993479;28;20034;-50
2022/06/27 05:35:06;;;;;;;15.23;12.43;;;;;;;17.81;83.98;101460.50;4976102;28;20078;-51
2022/06/27 05:37:31;;;;;;;16.00;12.60;;;;;;;17.81;83.45;101470.03;4995008;28;20042;-49
2022/06/27 05:39:57;;;;;;;14.38;12.10;;;;;;;17.77;83.54;101486.47;4991904;28;20433;-48
2022/06/27 05:42:23;;;;;;;15.73;12.30;;;;;;;17.76;83.01;101509.00;4989541;28;20479;-50
2022/06/27 05:44:48;;;;;;;15.15;11.45;;;;;;;17.78;83.39;101522.03;4994442;28;20117;-49
2022/06/27 05:47:14;;;;;;;16.58;12.20;;;;;;;17.81;83.38;101548.94;4987034;28;20451;-50
2022/06/27 05:49:39;;;;;;;15.73;12.70;;;;;;;17.84;84.43;101548.09;4994269;28;20026;-50
2022/06/27 05:52:05;;;;;;;18.17;12.07;;;;;;;17.83;84.94;101547.22;4992203;28;20026;-51
2022/06/27 05:54:32;;;;;;;15.80;13.25;;;;;;;17.86;85.96;101559.38;4998981;28;20398;-50
2022/06/27 05:56:58;;;;;;;15.05;12.68;;;;;;;17.87;85.71;101568.94;4993903;28;20034;-48
2022/06/27 05:59:24;;;;;;;16.30;12.40;;;;;;;17.87;86.33;101584.53;4994538;28;20065;-49
2022/06/27 06:01:51;;;;;;;17.52;13.20;;;;;;;17.83;87.26;101591.44;4989681;28;20475;-48
2022/06/27 06:04:17;;;;;;;16.40;13.02;;;;;;;17.86;86.40;101582.81;4984803;28;20444;-48
2022/06/27 06:06:43;;;;;;;18.23;12.65;;;;;;;17.88;86.79;101583.69;4991778;28;20065;-50
2022/06/27 06:09:10;;;;;;;14.80;12.32;;;;;;;17.86;86.46;101577.59;4991209;28;20042;-47
2022/06/27 06:11:36;;;;;;;16.25;12.95;;;;;;;17.86;85.66;101559.38;4991916;28;20909;-50
2022/06/27 06:14:03;;;;;;;14.50;12.30;;;;;;;17.86;86.31;101551.59;4970416;28;20118;-52
2022/06/27 06:16:29;;;;;;;16.52;12.98;;;;;;;17.88;86.17;101557.66;4996524;28;20062;-49
2022/06/27 06:18:55;;;;;;;19.85;13.77;;;;;;;17.90;87.13;101549.03;4989743;28;20060;-49
2022/06/27 06:21:22;;;;;;;16.80;13.30;;;;;;;17.91;86.22;101552.50;5001394;28;20116;-48
2022/06/27 06:23:49;;;;;;;18.00;12.88;;;;;;;17.91;85.78;101553.38;4991620;28;20106;-47
2022/06/27 06:26:16;;;;;;;17.33;12.98;;;;;;;17.94;85.78;101565.53;4986577;28;20057;-49
2022/06/27 06:28:43;;;;;;;16.63;12.52;;;;;;;17.91;84.28;101575.91;4993029;28;20410;-50
2022/06/27 06:31:09;;;;;;;15.95;12.07;;;;;;;17.91;84.93;101586.31;4990930;28;20026;-47
2022/06/27 06:33:35;;;;;;;14.65;12.50;;;;;;;17.96;84.99;101589.84;4991621;28;20086;-49
2022/06/27 06:36:01;;;;;;;15.82;12.88;;;;;;;17.94;85.83;101584.59;4992850;28;20034;-49
2022/06/27 06:38:27;;;;;;;17.38;12.40;;;;;;;17.97;84.86;101569.91;4990798;28;20042;-48
2022/06/27 06:40:53;;;;;;;17.80;13.18;;;;;;;17.97;85.50;101575.97;4992264;28;20121;-48
2022/06/27 06:43:18;;;;;;;19.33;13.07;;;;;;;18.00;85.49;101577.72;4996442;28;20054;-49
2022/06/27 06:45:44;;;;;;;19.45;13.30;;;;;;;17.96;84.68;101566.44;4994943;28;20041;-50
2022/06/27 06:48:09;;;;;;;15.35;13.07;;;;;;;17.96;85.77;101563.84;4993692;28;20058;-50
2022/06/27 06:50:35;;;;;;;18.70;13.18;;;;;;;17.97;86.20;101542.16;4992064;28;20030;-49
2022/06/27 06:53:01;;;;;;;19.63;14.52;;;;;;;17.97;86.21;101531.75;4996540;28;20034;-50
2022/06/27 06:55:28;;;;;;;17.23;13.57;;;;;;;17.97;84.45;101516.13;4993533;28;20033;-51
2022/06/27 06:57:56;;;;;;;16.33;13.38;;;;;;;18.02;85.62;101518.75;4990096;28;20909;-50
2022/06/27 07:00:22;;;;;;;15.77;13.82;;;;;;;18.02;84.31;101513.53;4989686;28;20117;-49
2022/06/27 07:02:48;;;;;;;20.35;14.30;;;;;;;18.04;85.51;101493.63;4978715;28;20149;-51
2022/06/27 07:05:16;;;;;;;19.27;14.45;;;;;;;18.06;83.94;101512.72;4996433;28;20426;-49
2022/06/27 07:07:42;;;;;;;17.70;13.77;;;;;;;18.09;83.43;101523.16;4994701;28;20038;-49
2022/06/27 07:10:10;;;;;;;17.33;14.05;;;;;;;18.12;84.07;101525.78;4995006;28;20038;-50
2022/06/27 07:12:36;;;;;;;19.95;13.70;;;;;;;18.15;82.91;101529.28;4997462;28;20065;-50
2022/06/27 07:15:05;;;;;;;19.23;13.90;;;;;;;18.17;83.45;101514.53;4999245;28;20112;-50
2022/06/27 07:17:48;;;;;;;18.20;14.50;;;;;;;18.23;83.48;101500.69;4991097;28;20042;-52
2022/06/27 07:20:19;;;;;;;18.98;14.43;;;;;;;18.23;83.27;101498.97;4993815;28;20054;-49
2022/06/27 07:22:44;;;;;;;18.85;13.93;;;;;;;18.23;83.34;101521.53;4992854;28;20034;-49
2022/06/27 07:25:10;;;;;;;17.13;14.27;;;;;;;18.23;82.93;101535.41;4989466;28;20045;-49
2022/06/27 07:27:36;;;;;;;15.93;13.52;;;;;;;18.30;85.25;101535.44;4986072;28;20037;-50
2022/06/27 07:30:03;;;;;;;20.27;14.63;;;;;;;18.33;84.87;101545.91;4990066;28;20522;-51
2022/06/27 07:32:29;;;;;;;19.70;14.60;;;;;;;18.37;84.05;101565.88;4988553;28;20026;-49
2022/06/27 07:34:57;;;;;;;17.10;13.63;;;;;;;18.39;84.02;101571.97;4988577;28;20036;-49
2022/06/27 07:37:22;;;;;;;21.67;15.23;;;;;;;18.46;83.83;101553.81;4995796;28;20061;-50
2022/06/27 07:39:49;;;;;;;18.23;13.77;;;;;;;18.55;83.82;101557.31;4993089;28;20038;-49
2022/06/27 07:42:14;;;;;;;19.58;13.93;;;;;;;18.62;84.40;101565.16;4997033;28;20038;-51
2022/06/27 07:44:39;;;;;;;16.33;13.48;;;;;;;18.67;83.40;101560.91;4991828;28;20035;-47
2022/06/27 07:47:05;;;;;;;17.00;13.35;;;;;;;18.71;83.96;101557.47;4995027;28;20030;-48
2022/06/27 07:49:31;;;;;;;17.77;13.55;;;;;;;18.73;83.01;101573.09;4994096;28;20117;-49
2022/06/27 07:51:57;;;;;;;17.55;13.50;;;;;;;18.77;82.34;101564.44;4995025;28;20364;-53
2022/06/27 07:54:23;;;;;;;16.55;12.57;;;;;;;18.81;82.97;101567.91;4995225;28;20038;-48
2022/06/27 07:56:49;;;;;;;16.27;12.90;;;;;;;18.87;82.87;101578.38;4995457;28;20446;-49
2022/06/27 07:59:15;;;;;;;18.20;12.68;;;;;;;18.87;83.45;101581.88;4994679;28;20030;-50
2022/06/27 08:01:41;;;;;;;16.73;12.35;;;;;;;18.86;82.50;101582.72;4991957;28;20483;-49
2022/06/27 08:04:07;;;;;;;18.02;12.57;;;;;;;18.85;83.14;101585.31;4992818;28;20033;-48
2022/06/27 08:06:33;;;;;;;16.40;12.35;;;;;;;18.87;82.82;101591.41;4997303;28;20030;-51
2022/06/27 08:09:01;;;;;;;16.58;12.65;;;;;;;18.86;83.52;101600.06;4996089;28;20061;-50
2022/06/27 08:11:29;;;;;;;17.80;12.75;;;;;;;18.88;83.59;101594.03;4991054;28;20049;-50
2022/06/27 08:14:03;;;;;;;17.52;13.07;;;;;;;18.91;82.79;101590.56;4996765;28;20379;-51
2022/06/27 08:16:29;;;;;;;16.20;12.85;;;;;;;18.91;82.91;101595.78;4993535;28;20022;-50
2022/06/27 08:18:55;;;;;;;16.83;13.15;;;;;;;18.95;83.03;101605.34;4980947;28;20035;-51
2022/06/27 08:21:25;;;;;;;15.70;12.30;;;;;;;18.95;82.55;101593.19;4983953;28;20387;-49
2022/06/27 08:23:52;;;;;;;16.33;12.45;;;;;;;18.98;82.71;101584.50;4985340;28;20034;-51
2022/06/27 08:26:18;;;;;;;16.60;11.95;;;;;;;18.99;82.58;101584.53;4988412;28;20035;-49
2022/06/27 08:28:47;;;;;;;16.05;12.45;;;;;;;18.99;80.85;101594.09;4986487;28;20031;-50
2022/06/27 08:31:12;;;;;;;;;;;;;;;19.11;81.06;101593.25;4988442;28;20460;-51
2022/06/27 08:33:43;;;;;;;14.38;10.73;;;;;;;19.02;80.41;101609.72;4983576;28;20063;-49
2022/06/27 08:36:09;;;;;;;14.98;11.23;;;;;;;19.02;79.80;101622.75;4985207;28;20073;-48
2022/06/27 08:38:45;;;;;;;12.75;9.95;;;;;;;19.02;80.79;101622.75;4987539;28;20061;-50
2022/06/27 08:41:11;;;;;;;15.52;10.43;;;;;;;19.03;81.86;101621.91;4988656;28;20065;-51
2022/06/27 08:43:38;;;;;;;15.57;10.00;;;;;;;19.02;81.44;101618.41;4985285;28;20030;-50
2022/06/27 08:46:05;;;;;;;13.10;10.48;;;;;;;19.02;80.28;101620.16;4986312;28;20491;-48
2022/06/27 08:48:32;;;;;;;15.23;10.50;;;;;;;19.04;80.38;101618.41;4985147;28;20097;-48
2022/06/27 08:50:59;;;;;;;16.77;12.60;;;;;;;19.05;81.41;101621.91;4986532;28;20034;-52
2022/06/27 08:53:25;;;;;;;19.05;13.75;;;;;;;19.03;82.55;101619.28;4982407;28;20395;-50
2022/06/27 08:55:51;;;;;;;18.42;13.65;;;;;;;19.07;81.03;101625.41;4987644;28;20449;-51
2022/06/27 08:58:16;;;;;;;17.15;12.52;;;;;;;19.08;80.47;101622.78;4985801;28;20030;-51
2022/06/27 09:00:45;;;;;;;18.95;13.05;;;;;;;19.05;79.96;101619.28;4985281;28;20134;-48
2022/06/27 09:03:18;;;;;;;17.60;13.02;;;;;;;19.09;81.10;101624.53;4987103;28;20039;-48
2022/06/27 09:05:54;;;;;;;17.38;12.73;;;;;;;19.11;81.33;101625.44;4992655;28;20034;-49
2022/06/27 09:08:20;;;;;;;16.40;12.35;;;;;;;19.11;79.88;101637.56;4993147;28;20026;-52
2022/06/27 09:10:46;;;;;;;18.83;13.93;;;;;;;19.14;80.60;101646.28;4994199;28;20046;-50
2022/06/27 09:13:14;;;;;;;16.33;13.20;;;;;;;19.17;81.37;101651.53;4997140;28;20109;-51
2022/06/27 09:16:03;;;;;;;15.95;13.30;;;;;;;19.24;81.72;101642.00;4991694;28;20036;-50
2022/06/27 09:18:29;;;;;;;;;;;;;;;19.35;81.20;101636.81;4992742;28;20486;-48
2022/06/27 09:21:01;;;;;;;18.75;13.77;;;;;;;19.32;81.65;101632.47;4993251;28;19917;-51
2022/06/27 09:24:00;;;;;;;18.10;13.80;;;;;;;19.35;81.71;101623.78;4996369;28;20030;-51
2022/06/27 09:26:26;;;;;;;18.38;14.30;;;;;;;19.37;79.41;101615.13;4999460;28;20498;-49
2022/06/27 09:28:56;;;;;;;17.20;13.05;;;;;;;19.41;78.32;101626.41;4991800;28;20026;-50
2022/06/27 09:31:30;;;;;;;16.40;12.00;;;;;;;19.43;77.82;101632.53;4993233;28;20125;-49
2022/06/27 09:34:19;;;;;;;17.23;12.30;;;;;;;19.45;78.27;101643.81;4990306;28;20483;-51
2022/06/27 09:37:01;;;;;;;18.02;13.15;;;;;;;19.46;78.77;101642.94;4988426;28;20039;-51
2022/06/27 09:39:33;;;;;;;17.58;12.48;;;;;;;19.48;78.89;101644.72;4993563;28;20030;-50
2022/06/27 09:42:04;;;;;;;15.80;12.05;;;;;;;19.50;78.94;101644.72;4993655;28;20036;-48
2022/06/27 09:44:40;;;;;;;12.95;11.55;;;;;;;19.53;77.90;101631.66;4990155;28;20080;-50
2022/06/27 09:47:10;;;;;;;15.25;11.35;;;;;;;19.56;78.17;101643.00;4991619;28;20052;-51
2022/06/27 09:49:38;;;;;;;15.40;11.80;;;;;;;19.61;78.18;101640.44;4990183;28;20038;-50
2022/06/27 09:52:06;;;;;;;16.23;12.60;;;;;;;19.62;77.23;101631.75;4985398;28;20096;-50
2022/06/27 09:54:33;;;;;;;17.50;12.18;;;;;;;19.67;76.73;101629.16;4987043;28;20026;-48
2022/06/27 09:57:00;;;;;;;14.93;11.52;;;;;;;19.79;77.86;101642.25;4989387;28;20029;-49
2022/06/27 09:59:26;;;;;;;15.68;11.32;;;;;;;19.81;76.60;101628.31;4990258;28;20434;-49
2022/06/27 10:01:56;;;;;;;15.57;10.93;;;;;;;19.86;76.70;101627.47;4992040;28;20049;-49
2022/06/27 10:04:24;;;;;;;17.95;10.77;;;;;;;19.88;76.72;101631.81;4990346;28;20102;-51
2022/06/27 10:06:51;;;;;;;16.23;11.18;;;;;;;19.90;76.87;101627.47;4992593;28;20050;-49
2022/06/27 10:09:20;;;;;;;16.60;11.15;;;;;;;19.93;75.95;101621.38;4986792;28;20030;-52
2022/06/27 10:11:46;;;;;;;;;;;;;;;20.01;75.94;101612.69;4991240;28;20121;-50
2022/06/27 10:14:12;;;;;;;13.93;9.98;;;;;;;19.94;71.87;101615.28;4985470;28;20379;-51
2022/06/27 10:16:58;;;;;;;13.15;9.35;;;;;;;19.99;73.41;101610.94;4986000;28;20050;-52
2022/06/27 10:19:28;;;;;;;13.68;9.82;;;;;;;20.01;72.86;101609.19;4994132;28;20030;-50
2022/06/27 10:21:55;;;;;;;14.98;9.43;;;;;;;20.09;71.95;101617.94;4990185;28;20049;-50
2022/06/27 10:24:29;;;;;;;13.85;10.80;;;;;;;20.06;70.03;101607.47;4988058;28;20027;-50
2022/06/27 10:26:57;;;;;;;17.48;9.70;;;;;;;20.17;72.42;101602.25;4987085;28;20109;-50
2022/06/27 10:29:28;;;;;;;12.27;9.15;;;;;;;20.24;71.56;101611.81;4990691;28;20502;-50
2022/06/27 10:31:54;;;;;;;13.00;9.07;;;;;;;20.32;73.16;101610.97;4991836;28;20602;-49
2022/06/27 10:34:38;;;;;;;13.68;9.38;;;;;;;20.38;73.06;101609.19;4986211;28;20065;-50
2022/06/27 10:37:24;;;;;;;18.48;10.00;;;;;;;20.42;71.72;101610.94;4986537;28;20688;-50
2022/06/27 10:39:51;;;;;;;13.77;10.07;;;;;;;20.38;69.72;101619.66;4985846;28;20034;-50
2022/06/27 10:42:50;;;;;;;14.65;9.98;;;;;;;20.41;71.62;101617.94;5002043;28;20080;-52
2022/06/27 10:45:28;;;;;;;12.77;9.90;;;;;;;20.41;71.89;101614.44;4994271;28;20026;-52
2022/06/27 10:47:54;;;;;;;13.38;9.02;;;;;;;20.42;72.40;101616.19;4991703;28;20034;-50
2022/06/27 10:50:21;;;;;;;11.70;8.90;;;;;;;20.41;70.80;101620.53;4993825;28;20031;-50
2022/06/27 10:52:47;;;;;;;13.05;8.73;;;;;;;20.39;71.48;101621.41;4991390;28;20492;-49
2022/06/27 10:55:26;;;;;;;12.52;8.90;;;;;;;20.43;72.22;101617.91;4994830;28;20026;-50
2022/06/27 10:57:53;;;;;;;15.23;8.38;;;;;;;20.40;68.64;101623.16;4984973;28;20023;-56
2022/06/27 11:00:40;;;;;;;10.25;7.75;;;;;;;20.41;69.21;101617.06;4991195;28;20117;-52
2022/06/27 11:03:08;;;;;;;11.15;7.97;;;;;;;20.34;68.23;101624.03;4988790;28;20557;-51
2022/06/27 11:06:06;;;;;;;13.85;8.85;;;;;;;20.36;69.41;101627.50;4988548;28;20128;-52
2022/06/27 11:08:34;;;;;;;11.00;8.63;;;;;;;20.32;69.76;101633.56;4989408;28;20065;-55
2022/06/27 11:11:00;;;;;;;8.83;6.67;;;;;;;20.29;71.14;101637.06;4985063;28;20050;-49
2022/06/27 11:13:42;;;;;;;7.95;4.90;;;;;;;20.30;68.40;101628.38;4987521;28;20061;-50
2022/06/27 11:16:19;;;;;;;9.48;5.90;;;;;;;20.25;69.03;101627.50;4986790;28;20019;-56